Time;durP1;ratioP1;P1;durP2;ratioP2;P2;SDS_P1;SDS_P2;PMS_P1;PMS_P2;Temp;Humidity;BMP_temperature;BMP_pressure;BME280_temperature;BME280_humidity;BME280_pressure;Samples;Min_cycle;Max_cycle;Signal;HPM_P1;HPM_P2
2022/07/18 00:00:31;;;;;;;6.68;4.13;;;15.50;99.90;;;;;;5001923;28;20206;-82
2022/07/18 00:02:57;;;;;;;15.25;4.75;;;15.40;99.90;;;;;;5001760;28;20090;-82
2022/07/18 00:05:22;;;;;;;7.20;5.38;;;15.30;99.90;;;;;;4993031;28;20046;-81
2022/07/18 00:07:48;;;;;;;8.43;5.00;;;15.30;99.90;;;;;;5001894;28;20037;-80
2022/07/18 00:10:14;;;;;;;5.70;3.95;;;15.20;99.90;;;;;;4998137;28;20128;-83
2022/07/18 00:12:39;;;;;;;6.15;3.90;;;15.20;99.90;;;;;;4995051;28;20042;-83
2022/07/18 00:15:05;;;;;;;8.60;5.20;;;15.20;99.90;;;;;;4995391;28;20042;-83
2022/07/18 00:17:31;;;;;;;7.20;4.85;;;15.20;99.90;;;;;;4979532;28;20048;-83
2022/07/18 00:19:59;;;;;;;11.38;5.07;;;15.10;99.90;;;;;;4978819;28;20041;-83
2022/07/18 00:22:25;;;;;;;11.45;4.78;;;15.10;99.90;;;;;;4994914;28;20100;-83
2022/07/18 00:24:50;;;;;;;7.85;5.20;;;15.10;99.90;;;;;;4978713;28;20046;-83
2022/07/18 00:27:16;;;;;;;6.97;4.20;;;15.00;99.90;;;;;;4995072;28;20048;-83
2022/07/18 00:29:42;;;;;;;6.18;3.70;;;15.00;99.90;;;;;;4995118;28;20073;-82
2022/07/18 00:32:08;;;;;;;6.82;4.15;;;14.90;99.90;;;;;;4993292;28;20038;-83
2022/07/18 00:34:34;;;;;;;5.25;3.65;;;14.90;99.90;;;;;;4982547;28;20038;-83
2022/07/18 00:37:00;;;;;;;6.65;4.00;;;14.90;99.90;;;;;;4978813;28;20040;-83
2022/07/18 00:39:26;;;;;;;5.50;3.95;;;14.80;99.90;;;;;;4978571;28;20116;-83
2022/07/18 00:41:51;;;;;;;6.93;4.55;;;14.80;99.90;;;;;;4994117;28;20557;-83
2022/07/18 00:44:22;;;;;;;6.38;4.45;;;14.80;99.90;;;;;;4978601;28;20041;-84
2022/07/18 00:46:49;;;;;;;5.57;4.22;;;14.70;99.90;;;;;;4995247;28;20045;-83
2022/07/18 00:49:15;;;;;;;7.35;4.32;;;14.60;99.90;;;;;;4999569;28;20370;-83
2022/07/18 00:51:41;;;;;;;8.45;4.38;;;14.60;99.90;;;;;;4984488;28;20061;-83
2022/07/18 00:54:07;;;;;;;5.63;3.92;;;14.50;99.90;;;;;;4980135;28;20496;-83
2022/07/18 00:56:33;;;;;;;8.48;4.60;;;14.40;99.90;;;;;;4996699;28;20492;-84
2022/07/18 00:58:58;;;;;;;4.95;3.15;;;14.40;99.90;;;;;;4994750;28;20034;-84
2022/07/18 01:01:42;;;;;;;5.38;3.38;;;14.40;99.90;;;;;;4978603;28;20042;-83
2022/07/18 01:04:10;;;;;;;6.82;4.22;;;14.30;99.90;;;;;;4994373;28;20369;-83
2022/07/18 01:06:35;;;;;;;5.38;3.88;;;14.20;99.90;;;;;;4995749;28;20073;-83
2022/07/18 01:09:01;;;;;;;8.27;4.75;;;14.30;99.90;;;;;;4997302;28;20073;-83
2022/07/18 01:11:27;;;;;;;6.35;4.22;;;14.20;99.90;;;;;;5003752;28;20408;-83
2022/07/18 01:13:53;;;;;;;8.43;5.85;;;14.30;99.90;;;;;;4986073;28;20154;-83
2022/07/18 01:16:18;;;;;;;7.63;4.70;;;14.20;99.90;;;;;;4996648;28;20088;-82
2022/07/18 01:18:49;;;;;;;6.57;3.75;;;14.30;99.90;;;;;;4981836;28;20069;-83
2022/07/18 01:21:15;;;;;;;7.70;4.25;;;14.30;99.90;;;;;;4989605;28;20034;-83
2022/07/18 01:23:41;;;;;;;7.45;3.40;;;14.20;99.90;;;;;;4995237;28;20125;-82
2022/07/18 01:26:07;;;;;;;7.75;4.35;;;14.20;99.90;;;;;;5001422;28;20069;-83
2022/07/18 01:28:33;;;;;;;8.90;4.78;;;14.10;99.90;;;;;;4997676;28;20125;-83
2022/07/18 01:30:58;;;;;;;7.97;5.07;;;14.10;99.90;;;;;;4993486;28;20494;-83
2022/07/18 01:33:24;;;;;;;8.20;6.55;;;14.10;99.90;;;;;;4992946;28;20392;-83
2022/07/18 01:35:49;;;;;;;8.70;3.83;;;14.10;99.90;;;;;;4989637;28;20168;-83
2022/07/18 01:38:17;;;;;;;7.47;4.63;;;14.10;99.90;;;;;;4998026;28;20492;-84
2022/07/18 01:40:43;;;;;;;6.93;4.50;;;14.10;99.90;;;;;;4997388;28;20586;-84
2022/07/18 01:43:09;;;;;;;6.97;4.30;;;14.00;99.90;;;;;;4996793;28;20038;-83
2022/07/18 01:45:34;;;;;;;9.18;5.40;;;14.00;99.90;;;;;;5001886;28;20045;-84
2022/07/18 01:48:00;;;;;;;8.25;5.43;;;13.90;99.90;;;;;;4997050;28;20535;-84
2022/07/18 01:50:26;;;;;;;8.30;5.50;;;13.90;99.90;;;;;;5001682;28;20038;-84
2022/07/18 01:52:52;;;;;;;11.30;5.63;;;13.90;99.90;;;;;;4981206;28;20041;-83
2022/07/18 01:55:17;;;;;;;7.97;5.15;;;13.80;99.90;;;;;;4997485;28;20046;-83
2022/07/18 01:57:43;;;;;;;9.82;6.72;;;13.80;99.90;;;;;;4997469;28;20490;-84
2022/07/18 02:00:10;;;;;;;10.15;6.53;;;13.80;99.90;;;;;;4997343;28;20042;-84
2022/07/18 02:02:37;;;;;;;9.45;5.95;;;13.80;99.90;;;;;;4996791;28;20046;-83
2022/07/18 02:05:04;;;;;;;10.57;6.72;;;13.90;99.90;;;;;;4991724;28;20091;-84
2022/07/18 02:07:34;;;;;;;7.88;5.60;;;13.80;99.90;;;;;;4999317;28;20069;-84
2022/07/18 02:10:06;;;;;;;11.75;6.95;;;13.90;99.90;;;;;;4980904;28;20250;-84
2022/07/18 02:12:32;;;;;;;7.82;5.75;;;13.80;99.90;;;;;;5000946;28;20484;-84
2022/07/18 02:14:57;;;;;;;8.70;5.85;;;13.80;99.90;;;;;;4992586;28;20053;-82
2022/07/18 02:17:23;;;;;;;8.18;4.68;;;13.80;99.90;;;;;;4989745;28;20092;-82
2022/07/18 02:19:49;;;;;;;8.35;4.68;;;13.80;99.90;;;;;;5001533;28;20030;-81
2022/07/18 02:22:15;;;;;;;15.25;5.60;;;13.70;99.90;;;;;;4991672;28;20079;-82
2022/07/18 02:24:41;;;;;;;11.20;6.97;;;13.60;99.90;;;;;;5007925;28;20765;-82
2022/07/18 02:27:07;;;;;;;7.65;5.80;;;13.50;99.90;;;;;;5008216;28;20045;-81
2022/07/18 02:29:33;;;;;;;9.98;6.88;;;13.60;99.90;;;;;;5006904;28;20082;-82
2022/07/18 02:31:59;;;;;;;9.25;6.05;;;13.60;99.90;;;;;;5006323;28;20418;-82
2022/07/18 02:34:24;;;;;;;11.00;7.10;;;13.60;99.90;;;;;;5010010;28;20252;-82
2022/07/18 02:36:50;;;;;;;10.55;7.15;;;13.60;99.90;;;;;;5006274;28;20065;-82
2022/07/18 02:39:17;;;;;;;9.05;6.80;;;13.60;99.90;;;;;;5008406;28;20037;-82
2022/07/18 02:41:43;;;;;;;8.88;6.00;;;13.60;99.90;;;;;;5004523;28;20480;-82
2022/07/18 02:44:09;;;;;;;10.00;6.25;;;13.70;99.90;;;;;;4986673;28;20058;-82
2022/07/18 02:46:34;;;;;;;10.10;5.72;;;13.60;99.90;;;;;;4987919;28;20042;-81
2022/07/18 02:49:00;;;;;;;12.32;8.07;;;13.70;99.90;;;;;;4989987;28;20095;-82
2022/07/18 02:51:26;;;;;;;9.18;6.70;;;13.70;99.90;;;;;;4989358;28;20046;-82
2022/07/18 02:53:52;;;;;;;11.57;7.05;;;13.70;99.90;;;;;;5011785;28;20400;-82
2022/07/18 02:56:18;;;;;;;11.10;6.30;;;13.70;99.90;;;;;;4999806;28;20061;-82
2022/07/18 02:58:43;;;;;;;7.85;4.80;;;13.70;99.90;;;;;;4970707;28;20106;-82
2022/07/18 03:01:09;;;;;;;8.18;5.25;;;13.60;99.90;;;;;;4970560;28;20038;-82
2022/07/18 03:03:34;;;;;;;10.23;6.53;;;13.60;99.90;;;;;;4978894;28;20099;-81
2022/07/18 03:06:00;;;;;;;11.13;7.15;;;13.60;99.90;;;;;;4989537;28;20046;-82
2022/07/18 03:08:26;;;;;;;11.93;6.88;;;13.60;99.90;;;;;;4989037;28;20038;-82
2022/07/18 03:10:52;;;;;;;9.63;6.25;;;13.60;99.90;;;;;;5005152;28;20207;-82
2022/07/18 03:13:17;;;;;;;8.52;5.32;;;13.60;99.90;;;;;;5004691;28;20038;-82
2022/07/18 03:15:43;;;;;;;9.82;5.88;;;13.60;99.90;;;;;;4988096;28;20048;-82
2022/07/18 03:18:08;;;;;;;7.18;4.70;;;13.50;99.90;;;;;;4994878;28;20031;-82
2022/07/18 03:20:34;;;;;;;9.63;5.45;;;13.50;99.90;;;;;;5005855;28;20563;-83
2022/07/18 03:23:05;;;;;;;11.25;7.75;;;13.40;99.90;;;;;;5002317;28;20049;-82
2022/07/18 03:25:31;;;;;;;14.07;7.30;;;13.40;99.90;;;;;;4998318;28;20053;-84
2022/07/18 03:27:56;;;;;;;16.45;9.52;;;13.50;99.90;;;;;;4979592;28;20041;-84
2022/07/18 03:30:22;;;;;;;10.85;6.43;;;13.50;99.90;;;;;;4999769;28;20037;-84
2022/07/18 03:32:48;;;;;;;10.65;5.50;;;13.50;99.90;;;;;;4978796;28;20049;-83
2022/07/18 03:35:14;;;;;;;9.50;6.68;;;13.50;99.90;;;;;;4979284;28;20035;-84
2022/07/18 03:37:40;;;;;;;15.02;8.40;;;13.40;99.90;;;;;;4987342;28;20048;-84
2022/07/18 03:40:06;;;;;;;10.80;7.65;;;13.40;99.90;;;;;;4998395;28;20025;-84
2022/07/18 03:42:32;;;;;;;12.82;8.32;;;13.40;99.90;;;;;;4998746;28;20041;-84
2022/07/18 03:44:57;;;;;;;13.73;8.73;;;13.50;99.90;;;;;;4995185;28;20038;-85
2022/07/18 03:47:23;;;;;;;13.57;8.52;;;13.60;99.90;;;;;;4986230;28;20038;-84
2022/07/18 03:49:48;;;;;;;18.95;9.38;;;13.60;99.90;;;;;;4979517;28;20045;-84
2022/07/18 03:52:14;;;;;;;10.73;7.03;;;13.70;99.90;;;;;;4997902;28;20046;-82
2022/07/18 03:54:39;;;;;;;13.60;6.60;;;13.70;99.90;;;;;;4999425;28;20074;-82
2022/07/18 03:57:05;;;;;;;19.25;9.05;;;13.70;99.90;;;;;;4982085;28;20478;-82
2022/07/18 03:59:31;;;;;;;25.98;10.02;;;13.70;99.90;;;;;;4999057;28;20429;-83
2022/07/18 04:01:56;;;;;;;26.33;8.43;;;13.60;99.90;;;;;;4991607;28;20038;-82
2022/07/18 04:04:22;;;;;;;11.63;7.25;;;13.60;99.90;;;;;;5000439;28;20038;-81
2022/07/18 04:06:47;;;;;;;18.77;9.40;;;13.50;99.90;;;;;;5000536;28;20049;-82
2022/07/18 04:09:13;;;;;;;12.07;7.30;;;13.50;99.90;;;;;;5000490;28;20050;-82
2022/07/18 04:11:39;;;;;;;15.90;9.27;;;13.40;99.90;;;;;;5000020;28;20666;-82
2022/07/18 04:14:04;;;;;;;13.57;8.30;;;13.40;99.90;;;;;;5010504;28;20045;-82
2022/07/18 04:16:30;;;;;;;23.88;9.25;;;13.50;99.90;;;;;;5000469;28;20049;-82
2022/07/18 04:18:56;;;;;;;13.77;8.10;;;13.60;99.90;;;;;;4992283;28;20045;-82
2022/07/18 04:21:21;;;;;;;12.85;7.28;;;13.60;99.90;;;;;;4990726;28;20044;-82
2022/07/18 04:23:47;;;;;;;17.73;8.30;;;13.70;99.90;;;;;;4962112;28;20054;-83
2022/07/18 04:26:12;;;;;;;21.85;9.07;;;13.70;99.90;;;;;;4961894;28;20548;-82
2022/07/18 04:28:38;;;;;;;22.80;8.27;;;13.80;99.90;;;;;;4995882;28;20496;-82
2022/07/18 04:31:04;;;;;;;17.70;6.90;;;13.90;99.90;;;;;;4982720;28;20061;-83
2022/07/18 04:33:29;;;;;;;10.85;6.55;;;13.90;99.90;;;;;;4995781;28;20042;-82
2022/07/18 04:35:55;;;;;;;12.63;7.45;;;14.00;99.90;;;;;;4990178;28;20111;-83
2022/07/18 04:38:20;;;;;;;12.90;7.22;;;14.20;99.90;;;;;;4991100;28;20045;-82
2022/07/18 04:40:46;;;;;;;11.98;6.85;;;14.30;99.90;;;;;;4995036;28;20060;-82
2022/07/18 04:43:11;;;;;;;15.80;7.95;;;14.50;99.90;;;;;;4998499;28;20522;-82
2022/07/18 04:45:37;;;;;;;22.55;8.00;;;14.70;99.90;;;;;;4988729;28;20076;-83
2022/07/18 04:48:04;;;;;;;13.60;7.78;;;14.70;99.90;;;;;;4974647;28;20034;-82
2022/07/18 04:50:30;;;;;;;20.02;8.18;;;14.80;99.90;;;;;;4999006;28;20049;-82
2022/07/18 04:52:56;;;;;;;21.40;9.07;;;14.90;99.90;;;;;;4998741;28;20046;-83
2022/07/18 04:55:24;;;;;;;16.73;7.90;;;15.00;99.90;;;;;;5000393;28;20432;-82
2022/07/18 04:57:50;;;;;;;17.48;7.50;;;15.10;99.90;;;;;;4998583;28;20136;-82
2022/07/18 05:00:18;;;;;;;13.00;6.80;;;15.10;99.90;;;;;;4999316;28;20034;-82
2022/07/18 05:02:46;;;;;;;23.27;7.82;;;15.20;99.90;;;;;;4999102;28;20434;-85
2022/07/18 05:05:13;;;;;;;22.90;8.43;;;15.30;99.90;;;;;;5003451;28;20042;-84
2022/07/18 05:07:40;;;;;;;18.60;8.85;;;15.40;99.90;;;;;;4998447;28;20038;-84
2022/07/18 05:10:07;;;;;;;20.35;7.47;;;15.60;99.90;;;;;;4998544;28;20177;-84
2022/07/18 05:12:42;;;;;;;24.33;7.88;;;15.70;99.90;;;;;;5001863;28;20053;-84
2022/07/18 05:15:09;;;;;;;;;;;15.80;99.90;;;;;;4993246;28;20113;-84
2022/07/18 05:17:36;;;;;;;26.83;8.32;;;15.80;99.90;;;;;;4979086;28;19917;-84
2022/07/18 05:20:03;;;;;;;15.13;6.90;;;15.90;99.90;;;;;;4978598;28;20069;-84
2022/07/18 05:22:29;;;;;;;12.80;6.57;;;16.00;99.90;;;;;;4981187;28;20390;-84
2022/07/18 05:24:54;;;;;;;13.98;7.88;;;16.10;99.90;;;;;;4997758;28;20072;-84
2022/07/18 05:27:20;;;;;;;13.18;7.45;;;16.10;99.90;;;;;;4981979;28;20050;-84
2022/07/18 05:29:46;;;;;;;9.30;7.07;;;16.20;99.90;;;;;;4998035;28;20041;-84
2022/07/18 05:32:12;;;;;;;13.98;6.47;;;16.30;99.90;;;;;;4998018;28;20129;-84
2022/07/18 05:34:37;;;;;;;10.82;6.30;;;16.30;99.90;;;;;;4981877;28;20508;-84
2022/07/18 05:37:03;;;;;;;9.82;5.82;;;16.50;99.90;;;;;;4998310;28;20042;-83
2022/07/18 05:39:29;;;;;;;10.27;5.68;;;16.60;99.90;;;;;;5000966;28;20076;-83
2022/07/18 05:41:54;;;;;;;12.90;5.68;;;16.70;99.90;;;;;;4971792;28;20049;-83
2022/07/18 05:44:20;;;;;;;6.65;5.07;;;16.80;99.90;;;;;;4977749;28;20120;-83
2022/07/18 05:46:46;;;;;;;8.23;5.28;;;16.80;99.90;;;;;;4999399;28;20089;-81
2022/07/18 05:49:13;;;;;;;8.50;3.88;;;16.90;99.90;;;;;;5003202;28;20492;-81
2022/07/18 05:51:39;;;;;;;7.10;4.50;;;17.00;99.90;;;;;;4991962;28;20050;-81
2022/07/18 05:54:04;;;;;;;8.13;4.18;;;17.20;99.90;;;;;;5018512;28;20092;-81
2022/07/18 05:56:30;;;;;;;5.43;3.08;;;17.30;99.90;;;;;;5007309;28;20081;-81
2022/07/18 05:58:56;;;;;;;6.88;4.13;;;17.40;99.90;;;;;;4982202;28;20046;-82
2022/07/18 06:01:21;;;;;;;11.57;4.50;;;17.50;99.90;;;;;;5000235;28;20017;-81
2022/07/18 06:03:47;;;;;;;22.10;5.95;;;17.70;99.90;;;;;;5003115;28;20544;-81
2022/07/18 06:06:14;;;;;;;15.90;6.13;;;17.80;99.90;;;;;;4987858;28;20046;-81
2022/07/18 06:08:40;;;;;;;11.93;5.10;;;17.90;99.90;;;;;;4987302;28;20038;-81
2022/07/18 06:11:07;;;;;;;17.48;4.72;;;18.00;99.90;;;;;;4986097;28;20297;-83
2022/07/18 06:13:34;;;;;;;10.02;3.95;;;18.10;99.90;;;;;;4997522;28;20048;-84
2022/07/18 06:15:59;;;;;;;14.65;4.80;;;18.10;99.90;;;;;;4984327;28;20042;-83
2022/07/18 06:18:25;;;;;;;8.68;3.58;;;18.20;99.90;;;;;;4977755;28;20108;-84
2022/07/18 06:20:51;;;;;;;6.95;3.95;;;18.30;99.90;;;;;;4978393;28;20054;-82
2022/07/18 06:23:16;;;;;;;5.53;3.28;;;18.40;99.90;;;;;;4977455;28;20101;-82
2022/07/18 06:25:42;;;;;;;8.85;4.00;;;18.50;99.90;;;;;;4977658;28;20657;-83
2022/07/18 06:28:07;;;;;;;5.32;3.50;;;18.80;99.90;;;;;;4995829;28;20044;-83
2022/07/18 06:30:33;;;;;;;8.98;2.97;;;18.90;99.90;;;;;;4979499;28;20081;-83
2022/07/18 06:32:58;;;;;;;7.32;3.78;;;19.10;99.90;;;;;;4977557;28;20034;-83
2022/07/18 06:35:24;;;;;;;5.13;2.10;;;19.30;99.90;;;;;;4977390;28;20121;-82
2022/07/18 06:37:50;;;;;;;5.35;2.58;;;19.50;99.90;;;;;;4977524;28;20179;-83
2022/07/18 06:40:15;;;;;;;3.72;2.17;;;19.70;99.90;;;;;;4977694;28;20046;-82
2022/07/18 06:42:41;;;;;;;4.93;2.65;;;19.80;99.90;;;;;;4994555;28;20041;-82
2022/07/18 06:45:07;;;;;;;3.08;1.67;;;20.00;99.90;;;;;;4993794;28;20041;-82
2022/07/18 06:47:32;;;;;;;3.13;1.50;;;20.10;99.90;;;;;;4996786;28;20104;-82
2022/07/18 06:49:58;;;;;;;2.05;1.48;;;20.20;99.90;;;;;;4997281;28;20481;-81
2022/07/18 06:52:23;;;;;;;3.65;1.77;;;20.30;99.90;;;;;;4997981;28;20104;-81
2022/07/18 06:54:49;;;;;;;3.28;1.52;;;20.40;99.90;;;;;;4997832;28;20440;-81
2022/07/18 06:57:15;;;;;;;6.82;2.78;;;20.60;99.90;;;;;;5002995;28;20044;-81
2022/07/18 06:59:40;;;;;;;7.18;1.75;;;20.80;99.90;;;;;;4990606;28;20070;-81
2022/07/18 07:02:06;;;;;;;3.25;1.33;;;20.90;99.90;;;;;;4992548;28;21925;-81
2022/07/18 07:04:31;;;;;;;3.25;1.02;;;20.90;99.90;;;;;;5003043;28;20119;-81
2022/07/18 07:06:57;;;;;;;2.58;1.10;;;21.00;99.90;;;;;;4982030;28;20497;-81
2022/07/18 07:09:22;;;;;;;4.32;1.20;;;20.90;99.90;;;;;;4984800;28;20076;-81
2022/07/18 07:11:48;;;;;;;4.35;1.38;;;21.00;99.90;;;;;;4978986;28;20175;-81
2022/07/18 07:14:14;;;;;;;3.35;1.50;;;21.20;99.90;;;;;;5004219;28;20125;-81
2022/07/18 07:16:39;;;;;;;4.22;1.08;;;21.50;99.90;;;;;;5005594;28;20038;-81
2022/07/18 07:19:05;;;;;;;2.53;1.75;;;21.80;99.90;;;;;;5005254;28;20037;-81
2022/07/18 07:21:30;;;;;;;4.72;1.30;;;22.10;99.90;;;;;;5009891;28;20087;-81
2022/07/18 07:23:56;;;;;;;4.03;1.13;;;22.30;99.90;;;;;;5003975;28;20053;-81
2022/07/18 07:26:21;;;;;;;4.93;2.90;;;22.50;99.90;;;;;;4985538;28;20045;-80
2022/07/18 07:28:47;;;;;;;5.07;1.13;;;22.60;99.90;;;;;;5005931;28;20515;-80
2022/07/18 07:31:13;;;;;;;3.25;0.98;;;22.80;99.90;;;;;;4993779;28;20038;-80
2022/07/18 07:33:38;;;;;;;3.22;1.00;;;23.00;99.90;;;;;;4991693;28;20050;-80
2022/07/18 07:36:05;;;;;;;4.78;1.13;;;23.30;99.90;;;;;;5001282;28;20117;-80
2022/07/18 07:38:31;;;;;;;4.05;0.88;;;23.50;99.90;;;;;;5005242;28;20104;-80
2022/07/18 07:40:56;;;;;;;4.65;1.45;;;23.60;99.90;;;;;;4993725;28;20037;-81
2022/07/18 07:43:24;;;;;;;5.72;0.88;;;23.90;99.90;;;;;;5010953;28;20038;-80
2022/07/18 07:45:52;;;;;;;4.32;1.15;;;24.00;99.90;;;;;;5009395;28;20048;-81
2022/07/18 07:48:18;;;;;;;4.05;0.70;;;24.10;99.90;;;;;;5010407;28;20120;-81
2022/07/18 07:50:44;;;;;;;3.40;1.05;;;24.40;99.90;;;;;;4988226;28;20047;-81
2022/07/18 07:53:09;;;;;;;4.63;0.70;;;24.60;99.90;;;;;;5005026;28;20050;-81
2022/07/18 07:55:35;;;;;;;4.53;0.60;;;25.00;99.40;;;;;;4998579;28;20042;-80
2022/07/18 07:58:01;;;;;;;2.15;1.20;;;25.40;97.70;;;;;;4998316;28;20538;-80
2022/07/18 08:00:27;;;;;;;5.13;1.15;;;25.50;97.60;;;;;;4999669;28;20096;-80
2022/07/18 08:02:59;;;;;;;3.10;0.75;;;25.70;97.30;;;;;;5000208;28;20038;-80
2022/07/18 08:05:26;;;;;;;3.83;1.02;;;25.80;97.30;;;;;;4985380;28;20098;-80
2022/07/18 08:07:52;;;;;;;1.88;0.85;;;25.70;97.70;;;;;;4980353;28;20101;-80
2022/07/18 08:10:18;;;;;;;1.98;0.68;;;25.60;97.10;;;;;;5001119;28;20038;-80
2022/07/18 08:12:43;;;;;;;3.47;0.70;;;25.50;96.30;;;;;;4998235;28;20080;-81
2022/07/18 08:15:09;;;;;;;2.10;0.70;;;25.60;95.20;;;;;;4996120;28;20046;-82
2022/07/18 08:17:35;;;;;;;2.25;0.63;;;25.90;93.30;;;;;;4980111;28;20038;-82
2022/07/18 08:20:01;;;;;;;3.78;0.50;;;26.20;93.00;;;;;;4997051;28;20129;-82
2022/07/18 08:22:26;;;;;;;2.83;0.40;;;26.50;92.30;;;;;;4995469;28;20089;-81
2022/07/18 08:24:52;;;;;;;2.40;0.50;;;26.50;90.90;;;;;;4982140;28;20445;-81
2022/07/18 08:27:17;;;;;;;2.78;0.40;;;26.50;91.40;;;;;;4982071;28;20038;-81
2022/07/18 08:29:43;;;;;;;3.72;0.70;;;26.50;90.50;;;;;;4985910;28;20116;-81
2022/07/18 08:32:09;;;;;;;2.60;0.50;;;26.60;90.00;;;;;;4993357;28;20034;-81
2022/07/18 08:34:34;;;;;;;2.47;0.30;;;26.80;86.80;;;;;;4999414;28;20091;-81
2022/07/18 08:37:00;;;;;;;3.88;0.95;;;26.70;86.80;;;;;;5010446;28;20117;-80
2022/07/18 08:39:25;;;;;;;30.73;22.58;;;26.60;83.50;;;;;;5016154;28;20045;-80
2022/07/18 08:41:51;;;;;;;124.13;95.00;;;26.40;80.40;;;;;;5004115;28;20053;-80
2022/07/18 08:44:18;;;;;;;50.40;32.28;;;26.40;80.70;;;;;;4996545;28;20056;-80
2022/07/18 08:46:51;;;;;;;360.30;252.32;;;26.50;80.30;;;;;;4980304;28;20115;-79
2022/07/18 08:49:17;;;;;;;46.57;32.57;;;26.50;77.60;;;;;;4996606;28;20403;-79
2022/07/18 08:51:43;;;;;;;38.80;27.75;;;26.60;79.20;;;;;;4996418;28;20064;-80
2022/07/18 08:54:10;;;;;;;18.17;14.57;;;26.90;79.70;;;;;;4995509;28;20039;-80
2022/07/18 08:56:36;;;;;;;6.30;1.85;;;27.40;82.90;;;;;;4988445;28;20143;-80
2022/07/18 08:59:03;;;;;;;1.52;0.50;;;27.80;75.40;;;;;;4991165;28;20045;-80
2022/07/18 09:01:32;;;;;;;3.10;0.70;;;28.10;74.40;;;;;;4995063;28;20057;-80
2022/07/18 09:04:17;;;;;;;3.47;0.60;;;28.30;74.50;;;;;;4996135;28;20064;-80
2022/07/18 09:06:48;;;;;;;1.65;0.30;;;28.70;73.60;;;;;;4997099;28;20049;-80
2022/07/18 09:09:16;;;;;;;2.55;0.40;;;29.20;71.40;;;;;;5013609;28;20049;-80
2022/07/18 09:12:01;;;;;;;2.92;0.50;;;29.50;70.40;;;;;;4995887;28;20045;-80
2022/07/18 09:14:27;;;;;;;1.63;0.50;;;29.60;67.50;;;;;;4979583;28;20045;-80
2022/07/18 09:17:20;;;;;;;3.60;0.30;;;29.50;66.30;;;;;;4970218;28;20501;-80
2022/07/18 09:20:11;;;;;;;2.03;0.47;;;29.50;63.20;;;;;;4995998;28;20050;-83
2022/07/18 09:22:38;;;;;;;0.93;0.20;;;29.50;64.30;;;;;;4997183;28;20107;-83
2022/07/18 09:25:14;;;;;;;1.85;0.20;;;29.30;64.90;;;;;;4996242;28;20048;-82
2022/07/18 09:27:39;;;;;;;2.50;0.30;;;29.00;65.70;;;;;;4986645;28;20124;-83
2022/07/18 09:30:25;;;;;;;1.13;0.38;;;28.80;62.70;;;;;;4993323;28;20481;-82
2022/07/18 09:33:04;;;;;;;6.82;4.20;;;28.70;66.10;;;;;;5001090;28;20049;-82
2022/07/18 09:35:33;;;;;;;7.18;4.53;;;28.70;66.30;;;;;;5001564;28;20129;-82
2022/07/18 09:38:07;;;;;;;3.50;0.50;;;28.70;65.40;;;;;;5007997;28;20122;-83
2022/07/18 09:40:36;;;;;;;16.67;10.90;;;28.90;64.40;;;;;;5000395;28;20121;-82
2022/07/18 09:43:07;;;;;;;3.28;0.77;;;28.80;65.70;;;;;;4998676;28;20046;-81
2022/07/18 09:45:36;;;;;;;5.75;2.78;;;28.80;64.60;;;;;;4998634;28;20038;-82
2022/07/18 09:48:07;;;;;;;7.57;4.82;;;28.70;63.30;;;;;;4998495;28;20454;-82
2022/07/18 09:50:58;;;;;;;1.92;0.57;;;28.70;68.20;;;;;;4998235;28;20038;-82
2022/07/18 09:53:26;;;;;;;1.83;0.50;;;29.00;69.30;;;;;;4992024;28;20350;-82
2022/07/18 09:55:54;;;;;;;2.72;0.60;;;29.30;67.50;;;;;;5008192;28;20034;-81
2022/07/18 09:58:23;;;;;;;3.67;0.35;;;29.60;63.60;;;;;;4998856;28;20038;-82
2022/07/18 10:00:49;;;;;;;2.25;0.40;;;29.80;63.40;;;;;;5001889;28;20077;-83
2022/07/18 10:03:16;;;;;;;1.77;0.40;;;29.90;62.30;;;;;;5006104;28;20033;-84
2022/07/18 10:05:43;;;;;;;3.97;0.85;;;30.20;59.10;;;;;;5013481;28;20463;-82
2022/07/18 10:08:14;;;;;;;1.30;0.40;;;30.20;58.40;;;;;;5005921;28;20456;-82
2022/07/18 10:10:42;;;;;;;4.28;0.43;;;30.10;57.30;;;;;;5012242;28;20034;-82
2022/07/18 10:13:08;;;;;;;1.77;0.50;;;30.10;59.10;;;;;;4995427;28;20089;-83
2022/07/18 10:15:36;;;;;;;1.92;0.50;;;30.20;60.00;;;;;;5001611;28;20033;-82
2022/07/18 10:18:04;;;;;;;2.08;0.50;;;30.50;58.40;;;;;;5005404;28;20037;-83
2022/07/18 10:20:46;;;;;;;2.28;0.40;;;30.60;55.70;;;;;;5001227;28;20044;-83
2022/07/18 10:23:27;;;;;;;3.30;0.50;;;30.80;55.90;;;;;;4993230;28;20038;-82
2022/07/18 10:26:16;;;;;;;3.50;0.32;;;30.90;55.10;;;;;;4983984;28;20046;-83
2022/07/18 10:28:59;;;;;;;3.17;0.45;;;31.00;52.50;;;;;;4985414;28;20536;-83
2022/07/18 10:31:30;;;;;;;4.60;0.57;;;31.20;53.70;;;;;;4986496;28;20038;-83
2022/07/18 10:34:07;;;;;;;2.67;0.40;;;31.20;51.50;;;;;;4997579;28;20125;-82
2022/07/18 10:36:38;;;;;;;4.63;1.38;;;31.20;53.10;;;;;;4997456;28;20519;-84
2022/07/18 10:39:19;;;;;;;1.95;0.50;;;31.20;53.50;;;;;;4997334;28;20103;-83
2022/07/18 10:41:51;;;;;;;3.05;0.73;;;31.30;53.10;;;;;;4997464;28;20104;-83
2022/07/18 10:44:31;;;;;;;1.88;0.57;;;31.50;52.80;;;;;;4996910;28;20244;-83
2022/07/18 10:47:03;;;;;;;1.23;0.50;;;31.80;52.10;;;;;;4999960;28;20065;-83
2022/07/18 10:49:51;;;;;;;3.05;0.65;;;31.80;50.50;;;;;;4981841;28;20046;-83
2022/07/18 10:52:26;;;;;;;1.45;0.50;;;32.10;53.10;;;;;;4978378;28;20077;-82
2022/07/18 10:55:15;;;;;;;3.03;0.68;;;32.40;48.30;;;;;;4978188;28;20050;-83
2022/07/18 10:58:05;;;;;;;2.05;0.77;;;32.60;47.60;;;;;;4994512;28;20046;-84
2022/07/18 11:00:37;;;;;;;2.55;0.75;;;32.70;46.40;;;;;;5005555;28;20233;-83
2022/07/18 11:03:06;;;;;;;5.40;1.10;;;32.60;44.50;;;;;;4970216;28;20093;-83
2022/07/18 11:05:42;;;;;;;6.70;3.25;;;32.50;43.50;;;;;;4996536;28;20133;-83
2022/07/18 11:08:09;;;;;;;4.18;2.05;;;32.50;45.40;;;;;;4997486;28;20045;-82
2022/07/18 11:10:41;;;;;;;3.47;1.65;;;32.60;45.10;;;;;;4991208;28;20396;-83
2022/07/18 11:13:25;;;;;;;4.45;1.88;;;32.90;45.60;;;;;;5001156;28;20107;-82
2022/07/18 11:15:54;;;;;;;;;;;33.20;46.40;;;;;;4990308;28;20516;-82
2022/07/18 11:18:20;;;;;;;3.67;2.83;;;33.30;44.20;;;;;;4998695;28;19964;-82
2022/07/18 11:20:45;;;;;;;3.22;1.08;;;33.40;46.60;;;;;;5004055;28;20037;-82
2022/07/18 11:23:18;;;;;;;4.45;1.38;;;33.50;42.50;;;;;;4992631;28;20095;-83
2022/07/18 11:25:46;;;;;;;5.97;1.15;;;33.40;43.20;;;;;;4997117;28;20034;-82
2022/07/18 11:28:11;;;;;;;2.85;1.10;;;33.30;42.30;;;;;;4999360;28;20041;-82
2022/07/18 11:30:38;;;;;;;4.72;1.88;;;33.00;43.30;;;;;;4989290;28;20238;-83
2022/07/18 11:33:05;;;;;;;2.65;0.90;;;33.30;41.10;;;;;;4982731;28;20068;-83
2022/07/18 11:35:31;;;;;;;2.58;0.65;;;33.60;40.70;;;;;;4998567;28;20049;-83
2022/07/18 11:37:57;;;;;;;3.55;0.80;;;33.50;40.40;;;;;;4986664;28;20033;-82
2022/07/18 11:40:23;;;;;;;3.90;0.80;;;33.30;42.40;;;;;;4996034;28;20501;-82
2022/07/18 11:42:48;;;;;;;3.75;0.77;;;33.50;43.00;;;;;;4995863;28;20049;-82
2022/07/18 11:45:16;;;;;;;2.83;1.70;;;33.80;43.10;;;;;;4996002;28;20044;-82
2022/07/18 11:47:52;;;;;;;2.92;1.38;;;34.00;40.90;;;;;;5015123;28;20046;-82
2022/07/18 11:50:33;;;;;;;4.45;2.05;;;34.00;37.30;;;;;;4998692;28;20046;-82
2022/07/18 11:52:59;;;;;;;3.75;1.40;;;34.00;40.10;;;;;;5020798;28;20045;-83
2022/07/18 11:55:37;;;;;;;2.38;1.20;;;34.10;42.40;;;;;;5012771;28;20117;-82
2022/07/18 11:58:11;;;;;;;4.07;1.55;;;34.70;43.00;;;;;;5001330;28;20065;-82
2022/07/18 12:00:38;;;;;;;2.40;1.20;;;35.10;41.30;;;;;;4999126;28;20045;-83
2022/07/18 12:03:18;;;;;;;2.33;0.80;;;35.20;39.50;;;;;;4998474;28;20440;-82
2022/07/18 12:05:49;;;;;;;1.65;1.27;;;35.30;40.10;;;;;;4994678;28;20041;-83
2022/07/18 12:08:25;;;;;;;3.00;1.15;;;35.60;39.80;;;;;;4995434;28;20034;-83
2022/07/18 12:11:03;;;;;;;2.72;1.58;;;35.60;37.10;;;;;;4985778;28;20038;-83
2022/07/18 12:14:07;;;;;;;2.55;1.40;;;35.60;40.00;;;;;;4993722;28;20128;-82
2022/07/18 12:16:35;;;;;;;3.00;1.37;;;35.30;39.80;;;;;;4976691;28;20096;-83
2022/07/18 12:19:08;;;;;;;2.97;1.40;;;35.20;39.30;;;;;;4995361;28;20277;-83
2022/07/18 12:21:47;;;;;;;3.42;1.13;;;35.50;39.00;;;;;;4995470;28;20050;-83
2022/07/18 12:24:26;;;;;;;4.90;3.33;;;35.90;39.00;;;;;;4996317;28;20162;-83
2022/07/18 12:27:21;;;;;;;5.57;3.53;;;36.00;38.30;;;;;;4998308;28;20077;-83
2022/07/18 12:30:06;;;;;;;5.57;4.75;;;35.90;39.80;;;;;;4981606;28;20049;-82
2022/07/18 12:32:52;;;;;;;33.00;26.17;;;36.00;38.10;;;;;;4996009;28;20518;-80
2022/07/18 12:35:21;;;;;;;2.75;1.77;;;36.00;36.40;;;;;;4997142;28;20428;-81
2022/07/18 12:38:01;;;;;;;3.65;2.90;;;36.10;38.70;;;;;;4996561;28;20090;-80
2022/07/18 12:40:38;;;;;;;2.67;1.92;;;36.40;40.70;;;;;;4997246;28;20053;-81
2022/07/18 12:43:07;;;;;;;4.68;1.65;;;36.70;36.20;;;;;;4996780;28;20501;-81
2022/07/18 12:45:33;;;;;;;4.72;1.73;;;36.40;35.30;;;;;;4996589;28;20050;-80
2022/07/18 12:47:58;;;;;;;1.75;1.20;;;36.00;37.20;;;;;;4996091;28;20408;-81